Time,TemperatureF,DewpointF,PressureIn,WindDirection,WindDirectionDegrees,WindSpeedMPH,WindSpeedGustMPH,Humidity,HourlyPrecipIn,Conditions,Clouds,dailyrainin,SolarRadiationWatts/m^2,SoftwareType,DateUTC
2013-04-26 00:09:00,44.9,25.0,30.31,West,261,0.0,1.0,45,0.00,,,0.00,0,weatherlink.com 1.10,2013-04-26 04:09:00,
2013-04-26 00:24:00,44.4,26.0,30.32,West,261,0.0,1.0,48,0.00,,,0.00,0,weatherlink.com 1.10,2013-04-26 04:24:00,
2013-04-26 00:39:00,43.9,28.0,30.32,West,261,0.0,0.0,54,0.00,,,0.00,0,weatherlink.com 1.10,2013-04-26 04:39:00,
2013-04-26 00:55:00,42.5,26.0,30.32,West,261,0.0,0.0,52,0.00,,,0.00,0,weatherlink.com 1.10,2013-04-26 04:55:00,
2013-04-26 01:10:00,41.6,26.0,30.32,West,261,0.0,0.0,54,0.00,,,0.00,0,weatherlink.com 1.10,2013-04-26 05:10:00,
2013-04-26 01:25:00,41.0,25.0,30.32,West,261,0.0,0.0,54,0.00,,,0.00,0,weatherlink.com 1.10,2013-04-26 05:25:00,
2013-04-26 01:40:00,40.3,25.0,30.32,West,261,0.0,0.0,54,0.00,,,0.00,0,weatherlink.com 1.10,2013-04-26 05:40:00,
2013-04-26 01:55:00,40.1,26.0,30.32,West,261,0.0,0.0,57,0.00,,,0.00,0,weatherlink.com 1.10,2013-04-26 05:55:00,
2013-04-26 02:10:00,40.1,25.0,30.32,West,261,0.0,0.0,55,0.00,,,0.00,0,weatherlink.com 1.10,2013-04-26 06:10:00,
2013-04-26 02:25:00,40.6,25.0,30.32,West,261,0.0,0.0,55,0.00,,,0.00,0,weatherlink.com 1.10,2013-04-26 06:25:00,
2013-04-26 02:40:00,40.9,25.0,30.32,West,261,0.0,0.0,53,0.00,,,0.00,0,weatherlink.com 1.10,2013-04-26 06:40:00,
2013-04-26 02:55:00,40.7,24.0,30.32,West,261,0.0,0.0,52,0.00,,,0.00,0,weatherlink.com 1.10,2013-04-26 06:55:00,
2013-04-26 03:10:00,40.5,24.0,30.32,West,261,0.0,0.0,53,0.00,,,0.00,0,weatherlink.com 1.10,2013-04-26 07:10:00,
2013-04-26 03:25:00,40.9,28.0,30.33,West,261,0.0,1.0,60,0.00,,,0.00,0,weatherlink.com 1.10,2013-04-26 07:25:00,
2013-04-26 03:40:00,40.9,24.0,30.33,West,261,0.0,0.0,52,0.00,,,0.00,0,weatherlink.com 1.10,2013-04-26 07:40:00,
2013-04-26 03:55:00,41.1,26.0,30.33,West,261,0.0,0.0,56,0.00,,,0.00,0,weatherlink.com 1.10,2013-04-26 07:55:00,
2013-04-26 04:10:00,40.6,27.0,30.34,West,261,0.0,1.0,58,0.00,,,0.00,0,weatherlink.com 1.10,2013-04-26 08:10:00,
2013-04-26 04:25:00,40.1,25.0,30.34,West,261,0.0,0.0,56,0.00,,,0.00,0,weatherlink.com 1.10,2013-04-26 08:25:00,
2013-04-26 04:40:00,39.8,25.0,30.34,West,261,0.0,0.0,55,0.00,,,0.00,0,weatherlink.com 1.10,2013-04-26 08:40:00,
2013-04-26 04:55:00,39.3,25.0,30.35,West,261,0.0,0.0,56,0.00,,,0.00,0,weatherlink.com 1.10,2013-04-26 08:55:00,
2013-04-26 05:10:00,39.6,25.0,30.35,West,261,0.0,0.0,56,0.00,,,0.00,0,weatherlink.com 1.10,2013-04-26 09:10:00,
2013-04-26 05:25:00,39.5,26.0,30.36,West,261,0.0,0.0,58,0.00,,,0.00,0,weatherlink.com 1.10,2013-04-26 09:25:00,
2013-04-26 05:40:00,39.1,26.0,30.36,West,261,0.0,0.0,60,0.00,,,0.00,0,weatherlink.com 1.10,2013-04-26 09:40:00,
2013-04-26 05:55:00,38.8,27.0,30.37,West,261,0.0,0.0,62,0.00,,,0.00,0,weatherlink.com 1.10,2013-04-26 09:55:00,
2013-04-26 06:10:00,38.7,26.0,30.37,West,261,0.0,0.0,61,0.00,,,0.00,5,weatherlink.com 1.10,2013-04-26 10:10:00,
2013-04-26 06:25:00,39.0,27.0,30.38,West,261,0.0,0.0,63,0.00,,,0.00,11,weatherlink.com 1.10,2013-04-26 10:25:00,
2013-04-26 06:40:00,39.4,28.0,30.38,West,261,0.0,1.0,63,0.00,,,0.00,14,weatherlink.com 1.10,2013-04-26 10:40:00,
2013-04-26 06:55:00,40.2,29.0,30.38,SSW,192,0.0,2.0,64,0.00,,,0.00,19,weatherlink.com 1.10,2013-04-26 10:55:00,
2013-04-26 07:10:00,41.6,30.0,30.39,ENE,76,2.0,3.0,64,0.00,,,0.00,23,weatherlink.com 1.10,2013-04-26 11:10:00,
2013-04-26 07:25:00,42.3,32.0,30.39,NE,55,0.0,2.0,67,0.00,,,0.00,26,weatherlink.com 1.10,2013-04-26 11:25:00,
2013-04-26 07:40:00,42.9,33.0,30.40,SE,130,0.0,2.0,67,0.00,,,0.00,32,weatherlink.com 1.10,2013-04-26 11:40:00,
2013-04-26 07:55:00,44.4,34.0,30.40,SE,130,0.0,1.0,67,0.00,,,0.00,35,weatherlink.com 1.10,2013-04-26 11:55:00,
2013-04-26 08:10:00,46.8,35.0,30.40,NE,56,1.0,3.0,64,0.00,,,0.00,39,weatherlink.com 1.10,2013-04-26 12:10:00,
2013-04-26 08:25:00,49.3,36.0,30.40,ENE,58,0.0,2.0,61,0.00,,,0.00,42,weatherlink.com 1.10,2013-04-26 12:25:00,
2013-04-26 08:40:00,51.8,36.0,30.40,North,5,1.0,3.0,55,0.00,,,0.00,46,weatherlink.com 1.10,2013-04-26 12:40:00,
2013-04-26 08:56:00,55.3,36.0,30.40,ENE,67,5.0,5.0,49,0.00,,,0.00,475,weatherlink.com 1.10,2013-04-26 12:56:00,
2013-04-26 09:11:00,58.1,38.0,30.40,East,88,3.0,5.0,47,0.00,,,0.00,526,weatherlink.com 1.10,2013-04-26 13:11:00,
2013-04-26 09:26:00,58.9,34.0,30.40,SSE,165,0.0,5.0,39,0.00,,,0.00,575,weatherlink.com 1.10,2013-04-26 13:26:00,
2013-04-26 09:41:00,60.9,34.0,30.40,NE,53,3.0,5.0,37,0.00,,,0.00,635,weatherlink.com 1.10,2013-04-26 13:41:00,
2013-04-26 09:56:00,61.1,37.0,30.40,ENE,76,0.0,5.0,41,0.00,,,0.00,677,weatherlink.com 1.10,2013-04-26 13:56:00,
2013-04-26 10:11:00,62.4,35.0,30.41,SSE,167,0.0,4.0,36,0.00,,,0.00,726,weatherlink.com 1.10,2013-04-26 14:11:00,
2013-04-26 10:26:00,63.1,34.0,30.41,East,89,3.0,6.0,34,0.00,,,0.00,779,weatherlink.com 1.10,2013-04-26 14:26:00,
2013-04-26 10:41:00,64.2,37.0,30.41,ESE,113,5.0,6.0,36,0.00,,,0.00,819,weatherlink.com 1.10,2013-04-26 14:41:00,
2013-04-26 10:56:00,63.9,33.0,30.41,South,175,0.0,6.0,31,0.00,,,0.00,861,weatherlink.com 1.10,2013-04-26 14:56:00,
2013-04-26 11:11:00,64.0,36.0,30.41,SE,128,0.0,8.0,35,0.00,,,0.00,905,weatherlink.com 1.10,2013-04-26 15:11:00,
2013-04-26 11:26:00,65.6,35.0,30.40,WSW,238,2.0,6.0,32,0.00,,,0.00,935,weatherlink.com 1.10,2013-04-26 15:26:00,
2013-04-26 11:41:00,65.8,35.0,30.40,East,81,5.0,10.0,32,0.00,,,0.00,963,weatherlink.com 1.10,2013-04-26 15:41:00,
2013-04-26 11:56:00,64.8,36.0,30.40,ENE,70,3.0,8.0,34,0.00,,,0.00,981,weatherlink.com 1.10,2013-04-26 15:56:00,
2013-04-26 12:11:00,65.4,37.0,30.39,South,172,3.0,9.0,35,0.00,,,0.00,1004,weatherlink.com 1.10,2013-04-26 16:11:00,
2013-04-26 12:26:00,65.9,39.0,30.39,East,94,1.0,7.0,37,0.00,,,0.00,1016,weatherlink.com 1.10,2013-04-26 16:26:00,
2013-04-26 12:41:00,65.7,36.0,30.39,SE,136,1.0,7.0,34,0.00,,,0.00,1021,weatherlink.com 1.10,2013-04-26 16:41:00,
2013-04-26 12:56:00,66.6,38.0,30.38,East,79,5.0,8.0,35,0.00,,,0.00,1023,weatherlink.com 1.10,2013-04-26 16:56:00,
2013-04-26 13:11:00,65.2,37.0,30.38,SSE,157,3.0,9.0,36,0.00,,,0.00,1020,weatherlink.com 1.10,2013-04-26 17:11:00,
2013-04-26 13:26:00,65.8,38.0,30.38,SSE,148,2.0,8.0,36,0.00,,,0.00,1018,weatherlink.com 1.10,2013-04-26 17:26:00,
2013-04-26 13:41:00,65.3,36.0,30.38,SW,233,4.0,6.0,34,0.00,,,0.00,1005,weatherlink.com 1.10,2013-04-26 17:41:00,
2013-04-26 13:56:00,64.6,37.0,30.37,SE,127,1.0,11.0,36,0.00,,,0.00,993,weatherlink.com 1.10,2013-04-26 17:56:00,
2013-04-26 14:11:00,65.4,38.0,30.37,SSE,167,1.0,7.0,36,0.00,,,0.00,979,weatherlink.com 1.10,2013-04-26 18:11:00,
2013-04-26 14:26:00,66.6,39.0,30.37,SE,142,1.0,8.0,37,0.00,,,0.00,954,weatherlink.com 1.10,2013-04-26 18:26:00,
2013-04-26 14:41:00,66.1,39.0,30.37,SSE,161,1.0,9.0,37,0.00,,,0.00,923,weatherlink.com 1.10,2013-04-26 18:41:00,
2013-04-26 14:57:00,65.4,42.0,30.37,SE,143,2.0,9.0,42,0.00,,,0.00,889,weatherlink.com 1.10,2013-04-26 18:57:00,
2013-04-26 15:12:00,64.9,38.0,30.37,SE,130,2.0,8.0,37,0.00,,,0.00,847,weatherlink.com 1.10,2013-04-26 19:12:00,
2013-04-26 15:27:00,63.2,38.0,30.37,South,174,1.0,10.0,40,0.00,,,0.00,793,weatherlink.com 1.10,2013-04-26 19:27:00,
2013-04-26 15:42:00,64.3,40.0,30.37,SSE,162,2.0,7.0,41,0.00,,,0.00,754,weatherlink.com 1.10,2013-04-26 19:42:00,
2013-04-26 15:57:00,64.0,40.0,30.37,SE,124,1.0,9.0,42,0.00,,,0.00,714,weatherlink.com 1.10,2013-04-26 19:57:00,
2013-04-26 16:12:00,65.3,40.0,30.37,ESE,111,2.0,8.0,40,0.00,,,0.00,656,weatherlink.com 1.10,2013-04-26 20:12:00,
2013-04-26 16:27:00,64.2,39.0,30.37,SE,135,3.0,10.0,40,0.00,,,0.00,596,weatherlink.com 1.10,2013-04-26 20:27:00,
2013-04-26 16:42:00,64.4,40.0,30.37,South,191,5.0,5.0,41,0.00,,,0.00,543,weatherlink.com 1.10,2013-04-26 20:42:00,
2013-04-26 16:57:00,62.0,41.0,30.37,ESE,112,4.0,10.0,46,0.00,,,0.00,487,weatherlink.com 1.10,2013-04-26 20:57:00,
2013-04-26 17:12:00,61.8,41.0,30.37,SSW,213,0.0,8.0,46,0.00,,,0.00,425,weatherlink.com 1.10,2013-04-26 21:12:00,
2013-04-26 17:27:00,62.5,42.0,30.37,ESE,114,1.0,5.0,47,0.00,,,0.00,388,weatherlink.com 1.10,2013-04-26 21:27:00,
2013-04-26 17:42:00,61.8,42.0,30.37,SE,144,0.0,5.0,49,0.00,,,0.00,281,weatherlink.com 1.10,2013-04-26 21:42:00,
2013-04-26 17:57:00,60.6,42.0,30.37,SE,125,1.0,5.0,50,0.00,,,0.00,155,weatherlink.com 1.10,2013-04-26 21:57:00,
2013-04-26 18:12:00,59.6,41.0,30.38,SE,141,3.0,7.0,51,0.00,,,0.00,70,weatherlink.com 1.10,2013-04-26 22:12:00,
2013-04-26 18:27:00,58.2,42.0,30.37,SE,143,0.0,5.0,56,0.00,,,0.00,60,weatherlink.com 1.10,2013-04-26 22:27:00,
2013-04-26 18:42:00,57.6,43.0,30.38,SE,133,1.0,3.0,58,0.00,,,0.00,28,weatherlink.com 1.10,2013-04-26 22:42:00,
2013-04-26 18:57:00,56.7,42.0,30.39,South,171,2.0,4.0,58,0.00,,,0.00,26,weatherlink.com 1.10,2013-04-26 22:57:00,
2013-04-26 19:12:00,56.0,42.0,30.39,ESE,112,1.0,3.0,60,0.00,,,0.00,18,weatherlink.com 1.10,2013-04-26 23:12:00,
2013-04-26 19:27:00,55.4,42.0,30.39,SE,126,1.0,2.0,62,0.00,,,0.00,7,weatherlink.com 1.10,2013-04-26 23:27:00,
2013-04-26 19:42:00,54.8,43.0,30.40,ESE,104,0.0,3.0,64,0.00,,,0.00,0,weatherlink.com 1.10,2013-04-26 23:42:00,
2013-04-26 20:12:00,53.3,44.0,30.40,ESE,109,0.0,1.0,70,0.00,,,0.00,0,weatherlink.com 1.10,2013-04-27 00:12:00,
2013-04-26 20:27:00,52.6,43.0,30.40,ESE,109,0.0,2.0,71,0.00,,,0.00,0,weatherlink.com 1.10,2013-04-27 00:27:00,
2013-04-26 20:42:00,51.8,43.0,30.41,ESE,109,0.0,0.0,73,0.00,,,0.00,0,weatherlink.com 1.10,2013-04-27 00:42:00,
2013-04-26 20:57:00,50.6,43.0,30.41,ESE,109,0.0,1.0,75,0.00,,,0.00,0,weatherlink.com 1.10,2013-04-27 00:57:00,
2013-04-26 21:12:00,49.4,42.0,30.41,ESE,106,0.0,2.0,77,0.00,,,0.00,0,weatherlink.com 1.10,2013-04-27 01:12:00,
2013-04-26 21:27:00,48.3,42.0,30.42,ESE,106,0.0,1.0,78,0.00,,,0.00,0,weatherlink.com 1.10,2013-04-27 01:27:00,
2013-04-26 21:42:00,47.2,42.0,30.42,ESE,106,0.0,1.0,81,0.00,,,0.00,0,weatherlink.com 1.10,2013-04-27 01:42:00,
2013-04-26 21:57:00,46.6,42.0,30.43,ESE,115,0.0,3.0,83,0.00,,,0.00,0,weatherlink.com 1.10,2013-04-27 01:57:00,
2013-04-26 22:12:00,46.1,41.0,30.43,ESE,110,0.0,2.0,83,0.00,,,0.00,0,weatherlink.com 1.10,2013-04-27 02:12:00,
2013-04-26 22:27:00,45.6,41.0,30.43,East,80,1.0,3.0,85,0.00,,,0.00,0,weatherlink.com 1.10,2013-04-27 02:27:00,
2013-04-26 22:42:00,45.0,41.0,30.43,East,82,0.0,2.0,84,0.00,,,0.00,0,weatherlink.com 1.10,2013-04-27 02:42:00,
2013-04-26 22:58:00,44.5,41.0,30.43,ENE,63,0.0,2.0,86,0.00,,,0.00,0,weatherlink.com 1.10,2013-04-27 02:58:00,
2013-04-26 23:13:00,44.1,41.0,30.43,ENE,63,0.0,1.0,88,0.00,,,0.00,0,weatherlink.com 1.10,2013-04-27 03:13:00,
2013-04-26 23:28:00,43.6,41.0,30.44,ENE,63,0.0,2.0,89,0.00,,,0.00,0,weatherlink.com 1.10,2013-04-27 03:28:00,
2013-04-26 23:43:00,42.8,40.0,30.44,ENE,63,0.0,0.0,88,0.00,,,0.00,0,weatherlink.com 1.10,2013-04-27 03:43:00,
2013-04-26 23:58:00,42.0,39.0,30.44,ENE,63,0.0,1.0,90,0.00,,,0.00,0,weatherlink.com 1.10,2013-04-27 03:58:00,